sensor_id;sensor_type;location;lat;lon;timestamp;temperature;humidity
41939;DHT22;23057;48.554;14.454;2022-09-30T00:02:15;8.30;99.90
41939;DHT22;23057;48.554;14.454;2022-09-30T00:04:45;8.20;99.90
41939;DHT22;23057;48.554;14.454;2022-09-30T00:07:16;8.20;99.90
41939;DHT22;23057;48.554;14.454;2022-09-30T00:09:47;8.20;99.90
41939;DHT22;23057;48.554;14.454;2022-09-30T00:12:18;8.20;99.90
41939;DHT22;23057;48.554;14.454;2022-09-30T00:14:49;8.10;99.90
41939;DHT22;23057;48.554;14.454;2022-09-30T00:17:20;8.10;99.90
41939;DHT22;23057;48.554;14.454;2022-09-30T00:19:51;8.10;99.90
41939;DHT22;23057;48.554;14.454;2022-09-30T00:22:21;8.10;99.90
41939;DHT22;23057;48.554;14.454;2022-09-30T00:24:52;8.00;99.90
41939;DHT22;23057;48.554;14.454;2022-09-30T00:27:23;8.10;99.90
41939;DHT22;23057;48.554;14.454;2022-09-30T00:29:54;8.10;99.90
41939;DHT22;23057;48.554;14.454;2022-09-30T00:32:25;8.00;99.90
41939;DHT22;23057;48.554;14.454;2022-09-30T00:34:56;8.00;99.90
41939;DHT22;23057;48.554;14.454;2022-09-30T00:37:26;8.00;99.90
41939;DHT22;23057;48.554;14.454;2022-09-30T00:39:57;8.00;99.90
41939;DHT22;23057;48.554;14.454;2022-09-30T00:42:28;7.90;99.90
41939;DHT22;23057;48.554;14.454;2022-09-30T00:45:04;8.00;99.90
41939;DHT22;23057;48.554;14.454;2022-09-30T00:50:53;7.90;99.90
41939;DHT22;23057;48.554;14.454;2022-09-30T00:53:27;7.90;99.90
41939;DHT22;23057;48.554;14.454;2022-09-30T00:56:18;7.90;99.90
41939;DHT22;23057;48.554;14.454;2022-09-30T01:01:32;8.00;99.90
41939;DHT22;23057;48.554;14.454;2022-09-30T01:06:44;8.00;99.90
41939;DHT22;23057;48.554;14.454;2022-09-30T01:09:16;8.00;99.90
41939;DHT22;23057;48.554;14.454;2022-09-30T01:11:48;8.00;99.90
41939;DHT22;23057;48.554;14.454;2022-09-30T01:14:20;8.00;99.90
41939;DHT22;23057;48.554;14.454;2022-09-30T01:39:49;8.00;99.90
41939;DHT22;23057;48.554;14.454;2022-09-30T01:42:42;7.90;99.90
41939;DHT22;23057;48.554;14.454;2022-09-30T01:45:41;7.90;99.90
41939;DHT22;23057;48.554;14.454;2022-09-30T01:54:17;7.90;99.90
41939;DHT22;23057;48.554;14.454;2022-09-30T01:57:04;7.90;99.90
41939;DHT22;23057;48.554;14.454;2022-09-30T01:59:42;7.80;99.90
41939;DHT22;23057;48.554;14.454;2022-09-30T02:02:22;7.90;99.90
41939;DHT22;23057;48.554;14.454;2022-09-30T02:07:57;7.90;99.90
41939;DHT22;23057;48.554;14.454;2022-09-30T02:10:46;7.90;99.90
41939;DHT22;23057;48.554;14.454;2022-09-30T02:16:21;7.80;99.90
41939;DHT22;23057;48.554;14.454;2022-09-30T02:19:08;7.80;99.90
41939;DHT22;23057;48.554;14.454;2022-09-30T02:21:52;7.80;99.90
41939;DHT22;23057;48.554;14.454;2022-09-30T02:24:30;7.80;99.90
41939;DHT22;23057;48.554;14.454;2022-09-30T02:27:11;7.80;99.90
41939;DHT22;23057;48.554;14.454;2022-09-30T02:30:00;7.80;99.90
41939;DHT22;23057;48.554;14.454;2022-09-30T02:32:37;7.80;99.90
41939;DHT22;23057;48.554;14.454;2022-09-30T02:35:31;7.70;99.90
41939;DHT22;23057;48.554;14.454;2022-09-30T02:38:23;7.80;99.90
41939;DHT22;23057;48.554;14.454;2022-09-30T02:41:01;7.80;99.90
41939;DHT22;23057;48.554;14.454;2022-09-30T02:43:40;7.70;99.90
41939;DHT22;23057;48.554;14.454;2022-09-30T02:49:48;7.70;99.90
41939;DHT22;23057;48.554;14.454;2022-09-30T02:52:44;7.70;99.90
41939;DHT22;23057;48.554;14.454;2022-09-30T02:55:29;7.70;99.90
41939;DHT22;23057;48.554;14.454;2022-09-30T02:58:19;7.60;99.90
41939;DHT22;23057;48.554;14.454;2022-09-30T03:00:55;7.60;99.90
41939;DHT22;23057;48.554;14.454;2022-09-30T03:06:33;7.60;99.90
41939;DHT22;23057;48.554;14.454;2022-09-30T03:09:06;7.60;99.90
41939;DHT22;23057;48.554;14.454;2022-09-30T03:11:38;7.60;99.90
41939;DHT22;23057;48.554;14.454;2022-09-30T03:14:17;7.60;99.90
41939;DHT22;23057;48.554;14.454;2022-09-30T03:25:36;7.60;99.90
41939;DHT22;23057;48.554;14.454;2022-09-30T03:28:29;7.60;99.90
41939;DHT22;23057;48.554;14.454;2022-09-30T03:34:24;7.60;99.90
41939;DHT22;23057;48.554;14.454;2022-09-30T03:37:17;7.60;99.90
41939;DHT22;23057;48.554;14.454;2022-09-30T03:40:28;7.60;99.90
41939;DHT22;23057;48.554;14.454;2022-09-30T03:49:09;7.60;99.90
41939;DHT22;23057;48.554;14.454;2022-09-30T03:51:47;7.70;99.90
41939;DHT22;23057;48.554;14.454;2022-09-30T03:54:18;7.80;99.90
41939;DHT22;23057;48.554;14.454;2022-09-30T03:56:49;7.70;99.90
41939;DHT22;23057;48.554;14.454;2022-09-30T03:59:23;7.80;99.90
41939;DHT22;23057;48.554;14.454;2022-09-30T04:01:59;7.70;99.90
41939;DHT22;23057;48.554;14.454;2022-09-30T04:04:30;7.80;99.90
41939;DHT22;23057;48.554;14.454;2022-09-30T04:07:01;7.70;99.90
41939;DHT22;23057;48.554;14.454;2022-09-30T04:09:32;7.70;99.90
41939;DHT22;23057;48.554;14.454;2022-09-30T04:12:03;7.70;99.90
41939;DHT22;23057;48.554;14.454;2022-09-30T04:14:35;7.70;99.90
41939;DHT22;23057;48.554;14.454;2022-09-30T04:17:06;7.60;99.90
41939;DHT22;23057;48.554;14.454;2022-09-30T04:19:37;7.60;99.90
41939;DHT22;23057;48.554;14.454;2022-09-30T04:22:09;7.70;99.90
41939;DHT22;23057;48.554;14.454;2022-09-30T04:24:40;7.70;99.90
41939;DHT22;23057;48.554;14.454;2022-09-30T04:27:12;7.70;99.90
41939;DHT22;23057;48.554;14.454;2022-09-30T04:29:43;7.60;99.90
41939;DHT22;23057;48.554;14.454;2022-09-30T04:32:13;7.60;99.90
41939;DHT22;23057;48.554;14.454;2022-09-30T04:34:44;7.60;99.90
41939;DHT22;23057;48.554;14.454;2022-09-30T04:37:15;7.60;99.90
41939;DHT22;23057;48.554;14.454;2022-09-30T04:39:46;7.60;99.90
41939;DHT22;23057;48.554;14.454;2022-09-30T04:42:16;7.60;99.90
41939;DHT22;23057;48.554;14.454;2022-09-30T04:44:47;7.50;99.90
41939;DHT22;23057;48.554;14.454;2022-09-30T04:47:18;7.50;99.90
41939;DHT22;23057;48.554;14.454;2022-09-30T04:49:49;7.50;99.90
41939;DHT22;23057;48.554;14.454;2022-09-30T04:52:19;7.60;99.90
41939;DHT22;23057;48.554;14.454;2022-09-30T04:54:50;7.60;99.90
41939;DHT22;23057;48.554;14.454;2022-09-30T04:57:21;7.60;99.90
41939;DHT22;23057;48.554;14.454;2022-09-30T04:59:52;7.50;99.90
41939;DHT22;23057;48.554;14.454;2022-09-30T05:02:23;7.50;99.90
41939;DHT22;23057;48.554;14.454;2022-09-30T05:04:53;7.50;99.90
41939;DHT22;23057;48.554;14.454;2022-09-30T05:07:24;7.60;99.90
41939;DHT22;23057;48.554;14.454;2022-09-30T05:09:56;7.60;99.90
41939;DHT22;23057;48.554;14.454;2022-09-30T05:12:26;7.60;99.90
41939;DHT22;23057;48.554;14.454;2022-09-30T05:14:57;7.60;99.90
41939;DHT22;23057;48.554;14.454;2022-09-30T05:17:28;7.60;99.90
41939;DHT22;23057;48.554;14.454;2022-09-30T05:20:00;7.60;99.90
41939;DHT22;23057;48.554;14.454;2022-09-30T05:22:32;7.60;99.90
41939;DHT22;23057;48.554;14.454;2022-09-30T05:25:03;7.60;99.90
41939;DHT22;23057;48.554;14.454;2022-09-30T05:27:34;7.60;99.90
41939;DHT22;23057;48.554;14.454;2022-09-30T05:30:05;7.60;99.90
41939;DHT22;23057;48.554;14.454;2022-09-30T05:32:37;7.50;99.90
41939;DHT22;23057;48.554;14.454;2022-09-30T05:35:08;7.50;99.90
41939;DHT22;23057;48.554;14.454;2022-09-30T05:37:41;7.50;99.90
41939;DHT22;23057;48.554;14.454;2022-09-30T05:40:12;7.50;99.90
41939;DHT22;23057;48.554;14.454;2022-09-30T05:42:43;7.60;99.90
41939;DHT22;23057;48.554;14.454;2022-09-30T05:45:15;7.50;99.90
41939;DHT22;23057;48.554;14.454;2022-09-30T05:47:52;7.50;99.90
41939;DHT22;23057;48.554;14.454;2022-09-30T05:50:24;7.60;99.90
41939;DHT22;23057;48.554;14.454;2022-09-30T05:52:55;7.60;99.90
41939;DHT22;23057;48.554;14.454;2022-09-30T05:55:26;7.60;99.90
41939;DHT22;23057;48.554;14.454;2022-09-30T05:57:57;7.70;99.90
41939;DHT22;23057;48.554;14.454;2022-09-30T06:00:28;7.70;99.90
41939;DHT22;23057;48.554;14.454;2022-09-30T06:02:59;7.70;99.90
41939;DHT22;23057;48.554;14.454;2022-09-30T06:05:30;7.70;99.90
41939;DHT22;23057;48.554;14.454;2022-09-30T06:08:01;7.80;99.90
41939;DHT22;23057;48.554;14.454;2022-09-30T06:10:33;7.80;99.90
41939;DHT22;23057;48.554;14.454;2022-09-30T06:13:05;7.80;99.90
41939;DHT22;23057;48.554;14.454;2022-09-30T06:15:36;7.80;99.90
41939;DHT22;23057;48.554;14.454;2022-09-30T06:18:08;7.90;99.90
41939;DHT22;23057;48.554;14.454;2022-09-30T06:20:41;7.90;99.90
41939;DHT22;23057;48.554;14.454;2022-09-30T06:23:12;7.80;99.90
41939;DHT22;23057;48.554;14.454;2022-09-30T06:25:43;7.80;99.90
41939;DHT22;23057;48.554;14.454;2022-09-30T06:28:14;9.00;99.90
41939;DHT22;23057;48.554;14.454;2022-09-30T06:30:46;9.50;99.90
41939;DHT22;23057;48.554;14.454;2022-09-30T06:33:17;9.50;99.90
41939;DHT22;23057;48.554;14.454;2022-09-30T06:35:49;9.40;99.90
41939;DHT22;23057;48.554;14.454;2022-09-30T06:38:20;8.80;99.90
41939;DHT22;23057;48.554;14.454;2022-09-30T06:40:52;8.30;99.90
41939;DHT22;23057;48.554;14.454;2022-09-30T06:43:23;8.30;99.90
41939;DHT22;23057;48.554;14.454;2022-09-30T06:45:54;8.10;99.90
41939;DHT22;23057;48.554;14.454;2022-09-30T06:48:25;8.10;99.90
41939;DHT22;23057;48.554;14.454;2022-09-30T06:50:59;8.00;99.90
41939;DHT22;23057;48.554;14.454;2022-09-30T06:53:30;8.10;99.90
41939;DHT22;23057;48.554;14.454;2022-09-30T06:56:00;8.20;99.90
41939;DHT22;23057;48.554;14.454;2022-09-30T06:58:31;8.10;99.90
41939;DHT22;23057;48.554;14.454;2022-09-30T07:01:03;8.20;99.90
41939;DHT22;23057;48.554;14.454;2022-09-30T07:03:35;8.40;99.90
41939;DHT22;23057;48.554;14.454;2022-09-30T07:06:06;9.00;99.90
41939;DHT22;23057;48.554;14.454;2022-09-30T07:08:37;9.60;99.90
41939;DHT22;23057;48.554;14.454;2022-09-30T07:11:09;10.00;99.90
41939;DHT22;23057;48.554;14.454;2022-09-30T07:13:44;10.10;99.90
41939;DHT22;23057;48.554;14.454;2022-09-30T07:16:17;10.10;99.90
41939;DHT22;23057;48.554;14.454;2022-09-30T07:18:50;9.70;99.90
41939;DHT22;23057;48.554;14.454;2022-09-30T07:21:21;9.20;99.90
41939;DHT22;23057;48.554;14.454;2022-09-30T07:23:51;9.00;99.90
41939;DHT22;23057;48.554;14.454;2022-09-30T07:26:24;9.10;99.90
41939;DHT22;23057;48.554;14.454;2022-09-30T07:28:56;9.10;99.90
41939;DHT22;23057;48.554;14.454;2022-09-30T07:31:29;8.90;99.90
41939;DHT22;23057;48.554;14.454;2022-09-30T07:34:00;8.70;99.90
41939;DHT22;23057;48.554;14.454;2022-09-30T07:36:37;8.70;99.90
41939;DHT22;23057;48.554;14.454;2022-09-30T07:39:11;8.80;99.90
41939;DHT22;23057;48.554;14.454;2022-09-30T07:41:41;8.80;99.90
41939;DHT22;23057;48.554;14.454;2022-09-30T07:44:14;8.80;99.90
41939;DHT22;23057;48.554;14.454;2022-09-30T07:46:45;8.80;99.90
41939;DHT22;23057;48.554;14.454;2022-09-30T07:49:16;9.10;99.90
41939;DHT22;23057;48.554;14.454;2022-09-30T07:51:55;9.20;99.90
41939;DHT22;23057;48.554;14.454;2022-09-30T07:54:29;9.20;99.90
41939;DHT22;23057;48.554;14.454;2022-09-30T07:57:03;9.10;99.90
41939;DHT22;23057;48.554;14.454;2022-09-30T07:59:35;9.10;99.90
41939;DHT22;23057;48.554;14.454;2022-09-30T08:02:11;8.90;99.90
41939;DHT22;23057;48.554;14.454;2022-09-30T08:04:46;8.80;99.90
41939;DHT22;23057;48.554;14.454;2022-09-30T08:07:17;8.90;99.90
41939;DHT22;23057;48.554;14.454;2022-09-30T08:09:48;8.80;99.90
41939;DHT22;23057;48.554;14.454;2022-09-30T08:12:19;8.80;99.90
41939;DHT22;23057;48.554;14.454;2022-09-30T08:14:50;8.70;99.90
41939;DHT22;23057;48.554;14.454;2022-09-30T08:17:21;8.70;99.90
41939;DHT22;23057;48.554;14.454;2022-09-30T08:19:51;8.80;99.90
41939;DHT22;23057;48.554;14.454;2022-09-30T08:22:22;8.70;99.90
41939;DHT22;23057;48.554;14.454;2022-09-30T08:24:53;8.80;99.90
41939;DHT22;23057;48.554;14.454;2022-09-30T08:27:24;8.90;99.90
41939;DHT22;23057;48.554;14.454;2022-09-30T08:29:54;8.90;99.90
41939;DHT22;23057;48.554;14.454;2022-09-30T08:32:28;8.90;99.90
41939;DHT22;23057;48.554;14.454;2022-09-30T08:34:59;9.00;99.90
41939;DHT22;23057;48.554;14.454;2022-09-30T08:37:30;9.10;99.90
41939;DHT22;23057;48.554;14.454;2022-09-30T08:40:02;9.20;99.90
41939;DHT22;23057;48.554;14.454;2022-09-30T08:46:14;9.40;99.90
41939;DHT22;23057;48.554;14.454;2022-09-30T08:48:50;9.40;99.90
41939;DHT22;23057;48.554;14.454;2022-09-30T08:52:07;9.40;99.90
41939;DHT22;23057;48.554;14.454;2022-09-30T08:54:49;9.50;99.90
41939;DHT22;23057;48.554;14.454;2022-09-30T08:57:23;9.50;99.90
41939;DHT22;23057;48.554;14.454;2022-09-30T09:00:06;9.60;99.90
41939;DHT22;23057;48.554;14.454;2022-09-30T09:02:45;9.70;99.90
41939;DHT22;23057;48.554;14.454;2022-09-30T09:05:30;9.90;99.90
41939;DHT22;23057;48.554;14.454;2022-09-30T09:08:34;9.90;99.90
41939;DHT22;23057;48.554;14.454;2022-09-30T09:14:29;9.70;99.90
41939;DHT22;23057;48.554;14.454;2022-09-30T09:18:06;9.60;99.90
41939;DHT22;23057;48.554;14.454;2022-09-30T09:20:33;9.60;99.90
41939;DHT22;23057;48.554;14.454;2022-09-30T09:23:11;9.50;99.90
41939;DHT22;23057;48.554;14.454;2022-09-30T09:25:43;9.60;99.90
41939;DHT22;23057;48.554;14.454;2022-09-30T09:28:21;9.60;99.90
41939;DHT22;23057;48.554;14.454;2022-09-30T09:31:16;9.70;99.90
41939;DHT22;23057;48.554;14.454;2022-09-30T09:33:49;9.80;99.90
41939;DHT22;23057;48.554;14.454;2022-09-30T09:42:09;9.90;99.90
41939;DHT22;23057;48.554;14.454;2022-09-30T09:45:37;9.90;99.90
41939;DHT22;23057;48.554;14.454;2022-09-30T09:48:20;9.90;99.90
41939;DHT22;23057;48.554;14.454;2022-09-30T09:51:02;9.90;99.90
41939;DHT22;23057;48.554;14.454;2022-09-30T09:53:49;10.00;99.90
41939;DHT22;23057;48.554;14.454;2022-09-30T09:56:28;9.80;99.90
41939;DHT22;23057;48.554;14.454;2022-09-30T09:59:23;9.90;99.90
41939;DHT22;23057;48.554;14.454;2022-09-30T10:01:53;9.90;99.90
41939;DHT22;23057;48.554;14.454;2022-09-30T10:04:25;10.10;99.90
41939;DHT22;23057;48.554;14.454;2022-09-30T10:07:00;10.00;99.90
41939;DHT22;23057;48.554;14.454;2022-09-30T10:09:43;10.00;99.90
41939;DHT22;23057;48.554;14.454;2022-09-30T10:12:18;10.00;99.90
41939;DHT22;23057;48.554;14.454;2022-09-30T10:14:58;10.00;99.90
41939;DHT22;23057;48.554;14.454;2022-09-30T10:17:34;10.10;99.90
41939;DHT22;23057;48.554;14.454;2022-09-30T10:20:18;10.10;99.90
41939;DHT22;23057;48.554;14.454;2022-09-30T10:23:00;10.20;99.90
41939;DHT22;23057;48.554;14.454;2022-09-30T10:26:00;10.00;99.90
41939;DHT22;23057;48.554;14.454;2022-09-30T10:28:53;10.10;99.90
41939;DHT22;23057;48.554;14.454;2022-09-30T10:31:45;10.10;99.90
41939;DHT22;23057;48.554;14.454;2022-09-30T10:39:52;9.80;99.90
41939;DHT22;23057;48.554;14.454;2022-09-30T10:42:25;9.80;99.90
41939;DHT22;23057;48.554;14.454;2022-09-30T10:45:02;9.90;99.90
41939;DHT22;23057;48.554;14.454;2022-09-30T10:47:46;10.10;99.90
41939;DHT22;23057;48.554;14.454;2022-09-30T10:50:23;10.10;99.90
41939;DHT22;23057;48.554;14.454;2022-09-30T10:52:57;10.00;99.90
41939;DHT22;23057;48.554;14.454;2022-09-30T10:55:34;10.00;99.90
41939;DHT22;23057;48.554;14.454;2022-09-30T10:58:24;10.10;99.90
41939;DHT22;23057;48.554;14.454;2022-09-30T11:01:29;10.30;99.90
41939;DHT22;23057;48.554;14.454;2022-09-30T11:04:13;10.30;99.90
41939;DHT22;23057;48.554;14.454;2022-09-30T11:07:15;10.30;99.90
41939;DHT22;23057;48.554;14.454;2022-09-30T11:13:30;10.20;99.90
41939;DHT22;23057;48.554;14.454;2022-09-30T11:20:20;10.50;99.90
41939;DHT22;23057;48.554;14.454;2022-09-30T11:23:49;10.60;99.90
41939;DHT22;23057;48.554;14.454;2022-09-30T11:47:01;11.80;1.00
41939;DHT22;23057;48.554;14.454;2022-09-30T11:53:10;12.00;99.90
41939;DHT22;23057;48.554;14.454;2022-09-30T11:58:47;11.60;99.90
41939;DHT22;23057;48.554;14.454;2022-09-30T12:01:33;11.60;99.90
41939;DHT22;23057;48.554;14.454;2022-09-30T12:07:05;11.70;99.90
41939;DHT22;23057;48.554;14.454;2022-09-30T12:09:52;11.60;99.90
41939;DHT22;23057;48.554;14.454;2022-09-30T12:12:30;11.40;99.90
41939;DHT22;23057;48.554;14.454;2022-09-30T12:15:02;11.20;99.90
41939;DHT22;23057;48.554;14.454;2022-09-30T12:17:38;11.20;1.00
41939;DHT22;23057;48.554;14.454;2022-09-30T12:23:05;11.20;99.90
41939;DHT22;23057;48.554;14.454;2022-09-30T12:26:02;11.00;1.00
41939;DHT22;23057;48.554;14.454;2022-09-30T12:28:35;11.00;99.90
41939;DHT22;23057;48.554;14.454;2022-09-30T12:48:52;11.10;99.90
41939;DHT22;23057;48.554;14.454;2022-09-30T12:51:31;11.10;99.90
41939;DHT22;23057;48.554;14.454;2022-09-30T12:54:06;11.10;99.90
41939;DHT22;23057;48.554;14.454;2022-09-30T12:56:46;11.40;79.30
41939;DHT22;23057;48.554;14.454;2022-09-30T12:59:27;11.80;1.00
41939;DHT22;23057;48.554;14.454;2022-09-30T13:02:05;12.00;99.90
41939;DHT22;23057;48.554;14.454;2022-09-30T13:04:48;12.10;99.90
41939;DHT22;23057;48.554;14.454;2022-09-30T13:07:20;12.30;99.90
41939;DHT22;23057;48.554;14.454;2022-09-30T13:09:59;12.40;99.90
41939;DHT22;23057;48.554;14.454;2022-09-30T13:13:11;12.30;76.70
41939;DHT22;23057;48.554;14.454;2022-09-30T13:15:57;12.00;53.20
41939;DHT22;23057;48.554;14.454;2022-09-30T13:37:02;13.00;1.00
41939;DHT22;23057;48.554;14.454;2022-09-30T13:39:47;13.00;1.00
41939;DHT22;23057;48.554;14.454;2022-09-30T13:42:26;12.90;99.90
41939;DHT22;23057;48.554;14.454;2022-09-30T13:45:05;13.00;1.00
41939;DHT22;23057;48.554;14.454;2022-09-30T13:47:48;12.90;99.90
41939;DHT22;23057;48.554;14.454;2022-09-30T13:53:13;12.50;1.00
41939;DHT22;23057;48.554;14.454;2022-09-30T13:55:54;12.40;42.80
41939;DHT22;23057;48.554;14.454;2022-09-30T14:08:06;12.50;1.00
41939;DHT22;23057;48.554;14.454;2022-09-30T14:17:52;12.80;99.90
41939;DHT22;23057;48.554;14.454;2022-09-30T14:23:43;13.00;99.90
41939;DHT22;23057;48.554;14.454;2022-09-30T14:26:38;12.80;99.90
41939;DHT22;23057;48.554;14.454;2022-09-30T14:32:59;12.80;99.90
41939;DHT22;23057;48.554;14.454;2022-09-30T14:35:35;12.60;99.90
41939;DHT22;23057;48.554;14.454;2022-09-30T14:38:18;12.80;99.90
41939;DHT22;23057;48.554;14.454;2022-09-30T14:41:01;12.90;99.90
41939;DHT22;23057;48.554;14.454;2022-09-30T14:43:39;13.10;99.90
41939;DHT22;23057;48.554;14.454;2022-09-30T14:46:31;13.10;99.90
41939;DHT22;23057;48.554;14.454;2022-09-30T14:49:11;13.10;99.90
41939;DHT22;23057;48.554;14.454;2022-09-30T14:51:51;13.00;99.90
41939;DHT22;23057;48.554;14.454;2022-09-30T14:54:23;12.90;99.90
41939;DHT22;23057;48.554;14.454;2022-09-30T14:56:59;13.00;99.90
41939;DHT22;23057;48.554;14.454;2022-09-30T14:59:32;12.90;99.90
41939;DHT22;23057;48.554;14.454;2022-09-30T15:02:13;12.80;99.90
41939;DHT22;23057;48.554;14.454;2022-09-30T15:04:52;12.70;99.90
41939;DHT22;23057;48.554;14.454;2022-09-30T15:07:25;12.80;1.00
41939;DHT22;23057;48.554;14.454;2022-09-30T15:09:59;12.90;1.00
41939;DHT22;23057;48.554;14.454;2022-09-30T15:12:31;13.00;1.00
41939;DHT22;23057;48.554;14.454;2022-09-30T15:21:15;13.20;99.90
41939;DHT22;23057;48.554;14.454;2022-09-30T15:23:48;13.10;99.90
41939;DHT22;23057;48.554;14.454;2022-09-30T15:26:25;13.00;99.90
41939;DHT22;23057;48.554;14.454;2022-09-30T15:28:57;13.00;99.90
41939;DHT22;23057;48.554;14.454;2022-09-30T15:31:28;12.90;99.90
41939;DHT22;23057;48.554;14.454;2022-09-30T15:34:05;12.80;99.90
41939;DHT22;23057;48.554;14.454;2022-09-30T15:36:59;12.70;99.90
41939;DHT22;23057;48.554;14.454;2022-09-30T15:39:37;12.70;1.00
41939;DHT22;23057;48.554;14.454;2022-09-30T15:42:44;12.60;1.00
41939;DHT22;23057;48.554;14.454;2022-09-30T15:45:26;12.50;1.00
41939;DHT22;23057;48.554;14.454;2022-09-30T15:50:43;12.20;99.90
41939;DHT22;23057;48.554;14.454;2022-09-30T15:53:23;12.10;99.90
41939;DHT22;23057;48.554;14.454;2022-09-30T15:55:58;12.00;1.00
41939;DHT22;23057;48.554;14.454;2022-09-30T16:06:46;11.70;99.90
41939;DHT22;23057;48.554;14.454;2022-09-30T16:09:29;11.60;99.90
41939;DHT22;23057;48.554;14.454;2022-09-30T16:12:08;11.50;99.90
41939;DHT22;23057;48.554;14.454;2022-09-30T16:14:58;11.50;1.00
41939;DHT22;23057;48.554;14.454;2022-09-30T16:17:48;11.40;1.00
41939;DHT22;23057;48.554;14.454;2022-09-30T16:20:20;11.70;99.90
41939;DHT22;23057;48.554;14.454;2022-09-30T16:22:54;12.20;99.90
41939;DHT22;23057;48.554;14.454;2022-09-30T16:25:30;12.20;99.90
41939;DHT22;23057;48.554;14.454;2022-09-30T16:28:09;12.10;99.90
41939;DHT22;23057;48.554;14.454;2022-09-30T16:30:43;11.80;99.90
41939;DHT22;23057;48.554;14.454;2022-09-30T16:33:18;11.50;99.90
41939;DHT22;23057;48.554;14.454;2022-09-30T16:35:49;11.30;99.90
41939;DHT22;23057;48.554;14.454;2022-09-30T16:38:20;11.10;99.90
41939;DHT22;23057;48.554;14.454;2022-09-30T16:40:51;11.00;99.90
41939;DHT22;23057;48.554;14.454;2022-09-30T16:43:21;10.90;99.90
41939;DHT22;23057;48.554;14.454;2022-09-30T16:45:53;11.00;99.90
41939;DHT22;23057;48.554;14.454;2022-09-30T16:48:26;10.90;99.90
41939;DHT22;23057;48.554;14.454;2022-09-30T16:53:57;10.80;99.90
41939;DHT22;23057;48.554;14.454;2022-09-30T16:56:27;10.70;99.90
41939;DHT22;23057;48.554;14.454;2022-09-30T16:58:58;10.60;99.90
41939;DHT22;23057;48.554;14.454;2022-09-30T17:01:29;10.60;99.90
41939;DHT22;23057;48.554;14.454;2022-09-30T17:03:59;10.50;99.90
41939;DHT22;23057;48.554;14.454;2022-09-30T17:06:31;10.50;99.90
41939;DHT22;23057;48.554;14.454;2022-09-30T17:09:03;10.40;99.90
41939;DHT22;23057;48.554;14.454;2022-09-30T17:11:34;10.40;99.90
41939;DHT22;23057;48.554;14.454;2022-09-30T17:14:07;10.30;99.90
41939;DHT22;23057;48.554;14.454;2022-09-30T17:16:38;10.30;99.90
41939;DHT22;23057;48.554;14.454;2022-09-30T17:19:09;10.20;99.90
41939;DHT22;23057;48.554;14.454;2022-09-30T17:21:39;10.10;99.90
41939;DHT22;23057;48.554;14.454;2022-09-30T17:24:10;10.10;99.90
41939;DHT22;23057;48.554;14.454;2022-09-30T17:26:41;10.10;99.90
41939;DHT22;23057;48.554;14.454;2022-09-30T17:29:12;10.00;99.90
41939;DHT22;23057;48.554;14.454;2022-09-30T17:31:43;9.90;99.90
41939;DHT22;23057;48.554;14.454;2022-09-30T17:34:14;9.90;99.90
41939;DHT22;23057;48.554;14.454;2022-09-30T17:36:44;9.90;99.90
41939;DHT22;23057;48.554;14.454;2022-09-30T17:39:15;9.90;99.90
41939;DHT22;23057;48.554;14.454;2022-09-30T17:41:46;9.80;99.90
41939;DHT22;23057;48.554;14.454;2022-09-30T17:44:35;9.70;99.90
41939;DHT22;23057;48.554;14.454;2022-09-30T17:47:08;9.60;99.90
41939;DHT22;23057;48.554;14.454;2022-09-30T17:49:39;9.60;99.90
41939;DHT22;23057;48.554;14.454;2022-09-30T17:52:09;9.60;99.90
41939;DHT22;23057;48.554;14.454;2022-09-30T17:54:43;9.60;99.90
41939;DHT22;23057;48.554;14.454;2022-09-30T17:57:15;9.60;99.90
41939;DHT22;23057;48.554;14.454;2022-09-30T17:59:45;9.60;99.90
41939;DHT22;23057;48.554;14.454;2022-09-30T18:02:16;9.60;99.90
41939;DHT22;23057;48.554;14.454;2022-09-30T18:04:47;9.60;99.90
41939;DHT22;23057;48.554;14.454;2022-09-30T18:07:18;9.60;99.90
41939;DHT22;23057;48.554;14.454;2022-09-30T18:09:50;9.60;99.90
41939;DHT22;23057;48.554;14.454;2022-09-30T18:12:21;9.60;99.90
41939;DHT22;23057;48.554;14.454;2022-09-30T18:14:52;9.50;99.90
41939;DHT22;23057;48.554;14.454;2022-09-30T18:17:24;9.50;99.90
41939;DHT22;23057;48.554;14.454;2022-09-30T18:19:55;9.50;99.90
41939;DHT22;23057;48.554;14.454;2022-09-30T18:22:25;9.40;99.90
41939;DHT22;23057;48.554;14.454;2022-09-30T18:24:56;9.40;99.90
41939;DHT22;23057;48.554;14.454;2022-09-30T18:27:47;9.50;99.90
41939;DHT22;23057;48.554;14.454;2022-09-30T18:30:20;9.40;99.90
41939;DHT22;23057;48.554;14.454;2022-09-30T18:32:53;9.50;99.90
41939;DHT22;23057;48.554;14.454;2022-09-30T18:35:25;9.40;99.90
41939;DHT22;23057;48.554;14.454;2022-09-30T18:37:56;9.40;99.90
41939;DHT22;23057;48.554;14.454;2022-09-30T18:40:27;9.40;99.90
41939;DHT22;23057;48.554;14.454;2022-09-30T18:43:01;9.40;99.90
41939;DHT22;23057;48.554;14.454;2022-09-30T18:45:34;9.40;99.90
41939;DHT22;23057;48.554;14.454;2022-09-30T18:48:07;9.40;99.90
41939;DHT22;23057;48.554;14.454;2022-09-30T18:50:38;9.40;99.90
41939;DHT22;23057;48.554;14.454;2022-09-30T18:53:09;9.40;99.90
41939;DHT22;23057;48.554;14.454;2022-09-30T18:55:41;9.40;99.90
41939;DHT22;23057;48.554;14.454;2022-09-30T18:58:13;9.40;99.90
41939;DHT22;23057;48.554;14.454;2022-09-30T19:00:47;9.40;99.90
41939;DHT22;23057;48.554;14.454;2022-09-30T19:03:18;9.40;99.90
41939;DHT22;23057;48.554;14.454;2022-09-30T19:05:48;9.30;99.90
41939;DHT22;23057;48.554;14.454;2022-09-30T19:08:19;9.30;99.90
41939;DHT22;23057;48.554;14.454;2022-09-30T19:10:50;9.30;99.90
41939;DHT22;23057;48.554;14.454;2022-09-30T19:13:23;9.40;99.90
41939;DHT22;23057;48.554;14.454;2022-09-30T19:16:01;9.40;99.90
41939;DHT22;23057;48.554;14.454;2022-09-30T19:18:34;9.40;99.90
41939;DHT22;23057;48.554;14.454;2022-09-30T19:21:09;9.40;99.90
41939;DHT22;23057;48.554;14.454;2022-09-30T19:23:44;9.40;99.90
41939;DHT22;23057;48.554;14.454;2022-09-30T19:26:16;9.40;99.90
41939;DHT22;23057;48.554;14.454;2022-09-30T19:28:47;9.40;99.90
41939;DHT22;23057;48.554;14.454;2022-09-30T19:31:18;9.30;99.90
41939;DHT22;23057;48.554;14.454;2022-09-30T19:33:53;9.40;99.90
41939;DHT22;23057;48.554;14.454;2022-09-30T19:36:26;9.40;99.90
41939;DHT22;23057;48.554;14.454;2022-09-30T19:38:57;9.40;99.90
41939;DHT22;23057;48.554;14.454;2022-09-30T19:41:31;9.30;99.90
41939;DHT22;23057;48.554;14.454;2022-09-30T19:44:03;9.30;99.90
41939;DHT22;23057;48.554;14.454;2022-09-30T19:46:34;9.30;99.90
41939;DHT22;23057;48.554;14.454;2022-09-30T19:49:05;9.30;99.90
41939;DHT22;23057;48.554;14.454;2022-09-30T19:51:35;9.30;99.90
41939;DHT22;23057;48.554;14.454;2022-09-30T19:54:06;9.30;99.90